createdAt,value
2023-01-13T00:01:18.885Z,2.15
2023-01-13T00:04:06.139Z,1.25
2023-01-13T00:06:52.835Z,1.70
2023-01-13T00:09:39.607Z,1.80
2023-01-13T00:12:27.961Z,1.40
2023-01-13T00:15:15.240Z,1.50
2023-01-13T00:18:02.131Z,1.88
2023-01-13T00:20:49.274Z,1.58
2023-01-13T00:23:36.498Z,1.27
2023-01-13T00:26:24.059Z,2.20
2023-01-13T00:29:12.726Z,2.38
2023-01-13T00:32:00.011Z,1.92
2023-01-13T00:34:47.090Z,3.78
2023-01-13T00:37:36.425Z,2.65
2023-01-13T00:40:23.258Z,1.75
2023-01-13T00:43:24.259Z,2.40
2023-01-13T00:46:13.575Z,2.08
2023-01-13T00:49:00.392Z,2.20
2023-01-13T00:51:47.369Z,1.50
2023-01-13T00:54:34.232Z,2.33
2023-01-13T00:57:21.003Z,3.03
2023-01-13T01:00:08.483Z,3.05
2023-01-13T01:02:56.969Z,1.10
2023-01-13T01:05:43.937Z,4.05
2023-01-13T01:08:30.955Z,0.93
2023-01-13T01:11:19.212Z,6.22
2023-01-13T01:14:06.408Z,3.58
2023-01-13T01:16:53.636Z,0.95
2023-01-13T01:19:42.753Z,1.00
2023-01-13T01:22:30.220Z,6.40
2023-01-13T01:25:19.586Z,1.10
2023-01-13T01:28:08.310Z,4.25
2023-01-13T01:30:59.258Z,1.20
2023-01-13T01:33:48.143Z,1.55
2023-01-13T01:36:37.724Z,2.70
2023-01-13T01:39:26.338Z,2.03
2023-01-13T01:42:35.754Z,2.70
2023-01-13T01:45:25.980Z,4.43
2023-01-13T01:48:13.826Z,3.38
2023-01-13T01:51:01.460Z,1.40
2023-01-13T01:53:54.009Z,4.18
2023-01-13T01:56:45.218Z,1.98
2023-01-13T01:59:35.623Z,2.95
2023-01-13T02:02:24.113Z,1.25
2023-01-13T02:05:11.954Z,3.88
2023-01-13T02:08:03.784Z,2.17
2023-01-13T02:10:55.756Z,5.57
2023-01-13T02:13:45.709Z,3.33
2023-01-13T02:16:34.861Z,1.00
2023-01-13T02:19:44.242Z,4.10
2023-01-13T02:23:35.824Z,1.70
2023-01-13T02:27:07.121Z,1.77
2023-01-13T02:30:27.316Z,3.10
2023-01-13T02:33:38.679Z,1.65
2023-01-13T02:36:35.252Z,4.13
2023-01-13T02:39:29.153Z,1.08
2023-01-13T02:42:42.744Z,2.37
2023-01-13T02:45:39.008Z,2.40
2023-01-13T02:48:31.373Z,3.47
2023-01-13T02:51:23.593Z,2.47
2023-01-13T02:54:16.266Z,1.40
2023-01-13T02:57:07.430Z,2.13
2023-01-13T02:59:57.386Z,3.83
2023-01-13T03:02:46.369Z,4.90
2023-01-13T03:05:34.298Z,3.28
2023-01-13T03:08:35.004Z,3.75
2023-01-13T03:11:26.328Z,3.58
2023-01-13T03:14:24.414Z,2.42
2023-01-13T03:17:20.883Z,6.28
2023-01-13T03:20:18.021Z,1.92
2023-01-13T03:23:10.478Z,4.30
2023-01-13T03:26:06.441Z,1.58
2023-01-13T03:28:59.120Z,2.70
2023-01-13T03:31:57.325Z,5.03
2023-01-13T03:34:48.478Z,5.13
2023-01-13T03:37:42.570Z,3.70
2023-01-13T03:40:34.250Z,1.13
2023-01-13T03:43:45.140Z,2.42
2023-01-13T03:46:38.385Z,2.78
2023-01-13T03:49:30.514Z,2.85
2023-01-13T03:52:27.134Z,2.60
2023-01-13T03:55:20.558Z,1.85
2023-01-13T03:58:16.062Z,3.85
2023-01-13T04:01:12.410Z,2.80
2023-01-13T04:04:05.630Z,4.53
2023-01-13T04:07:00.329Z,2.83
2023-01-13T04:12:59.201Z,2.25
2023-01-13T04:15:47.725Z,3.67
2023-01-13T04:18:39.584Z,2.85
2023-01-13T04:21:28.781Z,4.30
2023-01-13T04:24:17.504Z,5.00
2023-01-13T04:27:04.862Z,4.97
2023-01-13T04:29:53.487Z,6.72
2023-01-13T04:32:41.483Z,5.53
2023-01-13T04:35:28.710Z,6.80
2023-01-13T04:38:18.610Z,3.78
2023-01-13T04:41:06.015Z,3.05
2023-01-13T04:43:53.315Z,4.35
2023-01-13T04:46:42.370Z,5.05
2023-01-13T04:49:30.036Z,7.90
2023-01-13T04:52:17.608Z,6.57
2023-01-13T04:55:05.553Z,4.43
2023-01-13T04:57:52.937Z,5.63
2023-01-13T05:00:40.334Z,4.90
2023-01-13T05:03:29.254Z,6.88
2023-01-13T05:06:16.703Z,7.20
2023-01-13T05:09:03.734Z,7.10
2023-01-13T05:12:08.623Z,6.97
2023-01-13T05:15:13.367Z,4.95
2023-01-13T05:18:01.586Z,6.60
2023-01-13T05:20:50.991Z,8.02
2023-01-13T05:23:55.686Z,4.97
2023-01-13T05:26:43.364Z,7.00
2023-01-13T05:29:30.910Z,7.65
2023-01-13T05:32:18.524Z,10.23
2023-01-13T05:35:06.713Z,9.93
2023-01-13T05:37:55.911Z,7.80
2023-01-13T05:41:06.313Z,11.65
2023-01-13T05:43:53.429Z,9.27
2023-01-13T05:46:41.985Z,4.35
2023-01-13T05:49:29.584Z,4.60
2023-01-13T05:52:17.203Z,7.80
2023-01-13T05:55:06.672Z,4.68
2023-01-13T05:57:53.973Z,7.85
2023-01-13T06:00:41.992Z,8.00
2023-01-13T06:03:29.515Z,4.65
2023-01-13T06:06:17.044Z,10.32
2023-01-13T06:09:04.819Z,5.68
2023-01-13T06:11:53.559Z,4.57
2023-01-13T06:14:41.198Z,5.15
2023-01-13T06:17:28.716Z,9.00
2023-01-13T06:20:17.839Z,6.10
2023-01-13T06:23:09.292Z,7.43
2023-01-13T06:26:03.477Z,8.30
2023-01-13T06:28:52.094Z,5.45
2023-01-13T06:31:40.649Z,4.72
2023-01-13T06:34:28.094Z,4.57
2023-01-13T06:37:19.992Z,6.93
2023-01-13T06:40:08.498Z,7.50
2023-01-13T06:43:16.440Z,3.60
2023-01-13T06:46:05.634Z,4.32
2023-01-13T06:48:52.836Z,6.43
2023-01-13T06:51:40.459Z,8.68
2023-01-13T06:54:27.987Z,4.65
2023-01-13T06:57:15.576Z,5.25
2023-01-13T07:00:03.435Z,3.47
2023-01-13T07:02:52.644Z,7.15
2023-01-13T07:05:40.724Z,4.50
2023-01-13T07:08:28.727Z,8.10
2023-01-13T07:11:16.051Z,5.68
2023-01-13T07:14:20.959Z,4.40
2023-01-13T07:17:08.651Z,5.32
2023-01-13T07:19:58.079Z,6.45
2023-01-13T07:22:46.418Z,7.88
2023-01-13T07:25:34.353Z,6.18
2023-01-13T07:28:22.152Z,7.47
2023-01-13T07:31:15.865Z,4.22
2023-01-13T07:34:06.454Z,4.70
2023-01-13T07:36:55.034Z,6.00
2023-01-13T07:39:42.626Z,1.98
2023-01-13T07:42:46.704Z,6.55
2023-01-13T07:45:33.966Z,3.50
2023-01-13T07:48:21.305Z,4.90
2023-01-13T07:51:10.658Z,3.85
2023-01-13T07:53:59.710Z,7.60
2023-01-13T07:56:47.135Z,6.43
2023-01-13T07:59:34.617Z,6.07
2023-01-13T08:02:24.677Z,9.48
2023-01-13T08:05:13.654Z,3.30
2023-01-13T08:08:03.806Z,7.03
2023-01-13T08:10:52.523Z,7.88
2023-01-13T08:13:40.053Z,6.70
2023-01-13T08:16:27.538Z,5.88
2023-01-13T08:19:15.137Z,7.22
2023-01-13T08:22:03.109Z,4.35
2023-01-13T08:24:50.670Z,4.22
2023-01-13T08:27:40.059Z,4.75
2023-01-13T08:30:28.701Z,8.77
2023-01-13T08:33:16.219Z,2.97
2023-01-13T08:36:05.496Z,8.25
2023-01-13T08:38:52.894Z,8.13
2023-01-13T08:41:58.841Z,7.97
2023-01-13T08:44:47.993Z,5.32
2023-01-13T08:47:35.728Z,17.55
2023-01-13T08:50:23.322Z,8.30
2023-01-13T08:53:11.621Z,4.95
2023-01-13T08:55:59.305Z,4.53
2023-01-13T08:58:46.783Z,6.32
2023-01-13T09:01:36.003Z,9.15
2023-01-13T09:04:27.621Z,12.32
2023-01-13T09:07:15.348Z,3.53
2023-01-13T09:10:02.888Z,19.50
2023-01-13T09:13:07.642Z,5.00
2023-01-13T09:15:56.932Z,4.38
2023-01-13T09:18:45.968Z,13.85
2023-01-13T09:21:33.455Z,7.38
2023-01-13T09:24:21.514Z,4.50
2023-01-13T09:27:09.949Z,4.28
2023-01-13T09:29:57.472Z,13.32
2023-01-13T09:32:44.831Z,13.60
2023-01-13T09:35:32.805Z,6.93
2023-01-13T09:38:20.067Z,6.57
2023-01-13T09:41:28.007Z,8.80
2023-01-13T09:44:19.258Z,7.93
2023-01-13T09:47:14.241Z,7.00
2023-01-13T09:50:16.667Z,12.30
2023-01-13T09:53:11.629Z,7.57
2023-01-13T09:55:59.068Z,6.80
2023-01-13T09:58:48.055Z,10.60
2023-01-13T10:01:42.772Z,8.88
2023-01-13T10:04:30.406Z,6.90
2023-01-13T10:07:17.939Z,6.60
2023-01-13T10:10:13.840Z,9.95
2023-01-13T10:13:17.269Z,7.07
2023-01-13T10:16:18.833Z,10.45
2023-01-13T10:19:11.395Z,8.38
2023-01-13T10:22:19.803Z,8.27
2023-01-13T10:25:20.531Z,12.23
2023-01-13T10:28:12.209Z,6.60
2023-01-13T10:30:59.891Z,10.48
2023-01-13T10:33:47.719Z,14.73
2023-01-13T10:36:35.310Z,9.00
2023-01-13T10:39:22.839Z,9.38
2023-01-13T10:42:17.229Z,7.85
2023-01-13T10:45:05.242Z,11.43
2023-01-13T10:48:08.556Z,11.35
2023-01-13T10:50:55.939Z,4.82
2023-01-13T10:53:47.746Z,6.70
2023-01-13T10:56:35.383Z,12.13
2023-01-13T10:59:26.904Z,5.50
2023-01-13T11:02:27.790Z,14.98
2023-01-13T11:05:23.326Z,6.15
2023-01-13T11:08:18.389Z,9.43
2023-01-13T11:11:26.994Z,9.82
2023-01-13T11:14:37.092Z,11.95
2023-01-13T11:17:38.626Z,9.35
2023-01-13T11:20:32.665Z,15.60
2023-01-13T11:23:27.534Z,7.07
2023-01-13T11:26:19.723Z,10.52
2023-01-13T11:29:12.623Z,8.82
2023-01-13T11:32:09.634Z,11.20
2023-01-13T11:35:03.189Z,10.63
2023-01-13T11:37:57.204Z,7.88
2023-01-13T11:40:47.715Z,11.98
2023-01-13T11:43:42.336Z,4.60
2023-01-13T11:46:30.110Z,8.55
2023-01-13T11:49:24.830Z,11.63
2023-01-13T11:55:11.065Z,4.50
2023-01-13T11:58:06.727Z,10.07
2023-01-13T12:01:06.605Z,5.40
2023-01-13T12:04:05.213Z,13.50
2023-01-13T12:06:58.716Z,9.23
2023-01-13T12:09:59.041Z,12.25
2023-01-13T12:12:54.378Z,9.23
2023-01-13T12:16:07.024Z,9.70
2023-01-13T12:19:19.670Z,8.45
2023-01-13T12:22:13.411Z,11.55
2023-01-13T12:25:13.264Z,10.35
2023-01-13T12:28:04.569Z,10.88
2023-01-13T12:30:55.703Z,10.40
2023-01-13T12:33:57.154Z,6.35
2023-01-13T12:36:55.420Z,11.45
2023-01-13T12:39:52.656Z,10.15
2023-01-13T12:43:06.365Z,6.95
2023-01-13T12:45:53.810Z,8.32
2023-01-13T12:49:05.297Z,7.50
2023-01-13T12:52:12.802Z,8.68
2023-01-13T12:55:15.482Z,4.30
2023-01-13T12:58:18.320Z,10.18
2023-01-13T13:01:13.071Z,6.55
2023-01-13T13:04:11.577Z,7.50
2023-01-13T13:07:09.802Z,8.95
2023-01-13T13:10:00.550Z,5.35
2023-01-13T13:13:12.734Z,10.52
2023-01-13T13:16:47.847Z,11.52
2023-01-13T13:19:44.171Z,3.85
2023-01-13T13:22:44.504Z,6.40
2023-01-13T13:25:32.115Z,4.75
2023-01-13T13:28:22.859Z,6.25
2023-01-13T13:31:22.139Z,5.53
2023-01-13T13:34:18.749Z,5.22
2023-01-13T13:37:20.389Z,5.28
2023-01-13T13:40:28.995Z,4.32
2023-01-13T13:43:43.020Z,9.85
2023-01-13T13:46:50.631Z,5.13
2023-01-13T13:49:40.781Z,3.40
2023-01-13T13:52:31.442Z,9.95
2023-01-13T13:55:21.371Z,12.65
2023-01-13T13:58:18.682Z,7.63
2023-01-13T14:01:07.268Z,8.50
2023-01-13T14:04:08.243Z,5.97
2023-01-13T14:06:57.849Z,6.20
2023-01-13T14:09:46.671Z,15.45
2023-01-13T14:12:39.271Z,9.95
2023-01-13T14:15:32.930Z,8.00
2023-01-13T14:18:21.958Z,6.55
2023-01-13T14:21:21.084Z,9.10
2023-01-13T14:24:16.561Z,8.07
2023-01-13T14:27:12.101Z,9.63
2023-01-13T14:30:01.238Z,12.45
2023-01-13T14:32:49.662Z,15.25
2023-01-13T14:35:36.987Z,11.60
2023-01-13T14:38:25.958Z,8.80
2023-01-13T14:41:19.139Z,4.95
2023-01-13T14:44:17.518Z,5.40
2023-01-13T14:47:19.623Z,5.93
2023-01-13T14:50:08.513Z,8.85
2023-01-13T14:52:57.246Z,7.05
2023-01-13T14:55:46.014Z,7.70
2023-01-13T14:58:33.113Z,6.13
2023-01-13T15:01:29.501Z,5.38
2023-01-13T15:04:18.054Z,9.02
2023-01-13T15:07:05.857Z,7.15
2023-01-13T15:09:55.648Z,11.90
2023-01-13T15:12:44.986Z,12.80
2023-01-13T15:15:34.836Z,10.55
2023-01-13T15:18:22.295Z,8.02
2023-01-13T15:21:10.268Z,12.60
2023-01-13T15:23:57.899Z,11.27
2023-01-13T15:26:45.551Z,11.20
2023-01-13T15:29:34.633Z,10.45
2023-01-13T15:32:23.003Z,10.93
2023-01-13T15:35:14.319Z,7.35
2023-01-13T15:38:01.695Z,5.65
2023-01-13T15:40:50.649Z,5.22
2023-01-13T15:43:55.440Z,7.35
2023-01-13T15:46:44.568Z,7.85
2023-01-13T15:49:36.246Z,6.07
2023-01-13T15:52:24.971Z,10.25
2023-01-13T15:55:12.499Z,10.85
2023-01-13T15:57:59.917Z,6.43
2023-01-13T16:00:46.967Z,9.10
2023-01-13T16:03:35.523Z,17.30
2023-01-13T16:06:28.923Z,9.35
2023-01-13T16:09:16.977Z,10.68
2023-01-13T16:12:04.496Z,7.60
2023-01-13T16:14:52.069Z,8.98
2023-01-13T16:17:39.849Z,7.90
2023-01-13T16:20:28.675Z,17.35
2023-01-13T16:23:16.283Z,12.95
2023-01-13T16:26:06.046Z,9.50
2023-01-13T16:28:55.052Z,10.75
2023-01-13T16:31:42.307Z,11.63
2023-01-13T16:34:29.763Z,15.02
2023-01-13T16:37:22.769Z,13.13
2023-01-13T16:40:19.018Z,9.68
2023-01-13T16:43:06.847Z,10.73
2023-01-13T16:45:54.185Z,6.32
2023-01-13T16:48:41.097Z,9.63
2023-01-13T16:51:28.185Z,10.55
2023-01-13T16:54:17.190Z,10.70
2023-01-13T16:57:06.249Z,13.07
2023-01-13T16:59:53.640Z,11.60
2023-01-13T17:02:41.402Z,11.32
2023-01-13T17:05:28.881Z,7.28
2023-01-13T17:08:19.333Z,9.07
2023-01-13T17:11:08.413Z,14.60
2023-01-13T17:13:55.795Z,7.40
2023-01-13T17:16:43.818Z,11.90
2023-01-13T17:19:31.458Z,7.63
2023-01-13T17:22:19.579Z,10.95
2023-01-13T17:25:07.976Z,10.85
2023-01-13T17:27:57.619Z,12.73
2023-01-13T17:30:46.201Z,9.88
2023-01-13T17:33:37.182Z,9.50
2023-01-13T17:36:25.731Z,10.88
2023-01-13T17:39:17.021Z,12.75
2023-01-13T17:42:07.253Z,11.98
2023-01-13T17:44:55.879Z,11.05
2023-01-13T17:47:43.023Z,8.13
2023-01-13T17:50:32.540Z,10.82
2023-01-13T17:53:20.099Z,8.20
2023-01-13T17:56:08.926Z,12.35
2023-01-13T17:58:56.506Z,5.35
2023-01-13T18:01:46.026Z,11.30
2023-01-13T18:04:33.866Z,5.53
2023-01-13T18:07:21.218Z,13.52
2023-01-13T18:10:09.793Z,13.15
2023-01-13T18:12:57.493Z,10.55
2023-01-13T18:15:45.395Z,11.07
2023-01-13T18:18:35.238Z,10.18
2023-01-13T18:21:40.837Z,11.20
2023-01-13T18:24:45.413Z,11.20
2023-01-13T18:27:34.730Z,13.25
2023-01-13T18:30:22.236Z,10.38
2023-01-13T18:33:09.845Z,7.32
2023-01-13T18:35:58.671Z,11.35
2023-01-13T18:38:46.194Z,13.30
2023-01-13T18:41:50.970Z,10.48
2023-01-13T18:44:38.391Z,10.77
2023-01-13T18:47:28.589Z,8.13
2023-01-13T18:50:17.264Z,8.85
2023-01-13T18:53:06.327Z,13.07
2023-01-13T18:55:53.671Z,11.00
2023-01-13T18:58:49.885Z,6.93
2023-01-13T19:01:38.236Z,6.63
2023-01-13T19:04:25.782Z,13.75
2023-01-13T19:07:21.957Z,8.52
2023-01-13T19:10:13.281Z,12.63
2023-01-13T19:13:01.279Z,9.00
2023-01-13T19:15:48.522Z,9.85
2023-01-13T19:18:37.306Z,12.18
2023-01-13T19:21:25.404Z,10.02
2023-01-13T19:24:12.726Z,11.48
2023-01-13T19:27:01.606Z,9.32
2023-01-13T19:29:52.765Z,12.57
2023-01-13T19:32:40.416Z,9.48
2023-01-13T19:35:27.944Z,8.48
2023-01-13T19:38:15.616Z,8.77
2023-01-13T19:41:11.173Z,6.72
2023-01-13T19:44:17.128Z,8.07
2023-01-13T19:47:06.414Z,10.65
2023-01-13T19:49:54.054Z,7.80
2023-01-13T19:52:41.668Z,5.57
2023-01-13T19:55:30.339Z,6.63
2023-01-13T19:58:19.879Z,13.43
2023-01-13T20:01:11.722Z,10.30
2023-01-13T20:04:03.520Z,12.95
2023-01-13T20:06:51.000Z,12.65
2023-01-13T20:09:38.619Z,7.50
2023-01-13T20:12:27.467Z,10.52
2023-01-13T20:15:15.269Z,11.93
2023-01-13T20:18:04.205Z,10.60
2023-01-13T20:20:51.766Z,10.98
2023-01-13T20:23:39.378Z,8.52
2023-01-13T20:26:27.076Z,8.98
2023-01-13T20:29:14.666Z,8.07
2023-01-13T20:32:02.082Z,12.60
2023-01-13T20:34:51.048Z,12.82
2023-01-13T20:37:39.405Z,9.73
2023-01-13T20:40:26.784Z,18.65
2023-01-13T20:43:13.025Z,13.07
2023-01-13T20:46:00.460Z,13.35
2023-01-13T20:48:48.074Z,10.88
2023-01-13T20:51:37.216Z,12.35
2023-01-13T20:54:25.274Z,7.55
2023-01-13T20:57:13.355Z,15.68
2023-01-13T21:00:01.187Z,12.10
2023-01-13T21:02:48.649Z,14.88
2023-01-13T21:05:37.145Z,12.25
2023-01-13T21:08:25.898Z,14.27
2023-01-13T21:11:15.032Z,13.07
2023-01-13T21:14:19.972Z,13.13
2023-01-13T21:19:53.805Z,13.70
2023-01-13T21:22:41.781Z,8.73
2023-01-13T21:25:30.680Z,11.73
2023-01-13T21:28:18.520Z,14.57
2023-01-13T21:31:06.953Z,11.77
2023-01-13T21:33:55.030Z,12.27
2023-01-13T21:36:42.347Z,10.63
2023-01-13T21:39:30.043Z,8.40
2023-01-13T21:42:36.104Z,15.25
2023-01-13T21:45:40.985Z,12.85
2023-01-13T21:48:28.461Z,16.40
2023-01-13T21:51:15.937Z,12.38
2023-01-13T21:54:03.456Z,11.65
2023-01-13T21:56:51.001Z,11.85
2023-01-13T21:59:39.961Z,16.17
2023-01-13T22:02:31.853Z,19.45
2023-01-13T22:05:21.046Z,9.65
2023-01-13T22:08:08.858Z,12.45
2023-01-13T22:11:00.130Z,11.82
2023-01-13T22:14:04.660Z,16.00
2023-01-13T22:19:42.311Z,9.35
2023-01-13T22:22:34.978Z,27.60
2023-01-13T22:25:22.577Z,17.13
2023-01-13T22:28:13.894Z,18.50
2023-01-13T22:31:02.038Z,16.05
2023-01-13T22:33:53.377Z,21.00
2023-01-13T22:36:40.984Z,10.75
2023-01-13T22:39:28.807Z,20.77
2023-01-13T22:42:15.868Z,15.20
2023-01-13T22:45:03.766Z,18.20
2023-01-13T22:47:51.182Z,13.27
2023-01-13T22:50:40.022Z,11.10
2023-01-13T22:53:27.465Z,18.45
2023-01-13T22:56:20.958Z,14.27
2023-01-13T22:59:10.171Z,17.43
2023-01-13T23:01:57.733Z,14.60
2023-01-13T23:04:45.357Z,16.35
2023-01-13T23:07:33.909Z,16.02
2023-01-13T23:10:21.141Z,10.38
2023-01-13T23:13:09.971Z,17.55
2023-01-13T23:15:57.425Z,13.25
2023-01-13T23:18:48.120Z,16.52
2023-01-13T23:21:37.193Z,19.05
2023-01-13T23:24:27.894Z,10.07
2023-01-13T23:27:15.227Z,7.60
2023-01-13T23:30:02.896Z,12.07
2023-01-13T23:32:50.418Z,19.73
2023-01-13T23:35:37.561Z,11.73
2023-01-13T23:38:24.679Z,15.48
2023-01-13T23:41:15.536Z,18.88
2023-01-13T23:44:02.910Z,16.60
2023-01-13T23:46:50.026Z,13.27
2023-01-13T23:49:37.701Z,14.85
2023-01-13T23:52:25.513Z,14.68
2023-01-13T23:55:12.762Z,12.80
2023-01-13T23:58:01.296Z,12.25
